Time;durP1;ratioP1;P1;durP2;ratioP2;P2;SDS_P1;SDS_P2;PMS_P1;PMS_P2;Temp;Humidity;BMP_temperature;BMP_pressure;BME280_temperature;BME280_humidity;BME280_pressure;Samples;Min_cycle;Max_cycle;Signal;HPM_P1;HPM_P2
2022/07/22 00:00:46;;;;;;;;;37.00;33.33;;;;;22.28;75.13;101512.03;5059546;28;45796;-74
2022/07/22 00:03:11;;;;;;;;;31.00;29.00;;;;;22.30;74.82;101517.22;5058754;28;45491;-74
2022/07/22 00:05:36;;;;;;;;;32.67;30.00;;;;;22.28;74.65;101516.63;5059332;28;45242;-74
2022/07/22 00:08:02;;;;;;;;;39.00;32.67;;;;;22.22;75.01;101512.97;5059702;28;45362;-74
2022/07/22 00:10:27;;;;;;;;;30.67;30.00;;;;;22.21;75.19;101514.03;5059047;28;45474;-74
2022/07/22 00:12:52;;;;;;;;;38.67;33.67;;;;;22.20;75.23;101513.19;5059351;28;45560;-75
2022/07/22 00:15:18;;;;;;;;;33.67;30.00;;;;;22.20;75.04;101520.50;5059199;28;45318;-75
2022/07/22 00:17:43;;;;;;;;;35.00;30.67;;;;;22.16;74.81;101511.19;5050493;28;45349;-75
2022/07/22 00:20:10;;;;;;;;;33.67;32.00;;;;;22.14;75.09;101516.00;5058863;28;45405;-75
2022/07/22 00:22:35;;;;;;;;;33.33;31.33;;;;;22.09;75.66;101507.78;5059092;28;45625;-75
2022/07/22 00:25:01;;;;;;;;;38.33;32.00;;;;;22.07;75.42;101503.44;5059304;28;45360;-74
2022/07/22 00:27:26;;;;;;;;;35.67;31.67;;;;;22.06;75.47;101507.16;5059123;28;45864;-74
2022/07/22 00:29:51;;;;;;;;;32.33;30.00;;;;;22.04;76.07;101512.00;5059207;28;45336;-74
2022/07/22 00:32:17;;;;;;;;;33.67;30.33;;;;;22.02;76.03;101503.28;5044850;28;48403;-74
2022/07/22 00:34:42;;;;;;;;;28.00;26.67;;;;;21.95;75.95;101499.88;5058803;28;45272;-74
2022/07/22 00:37:08;;;;;;;;;31.00;29.33;;;;;21.88;75.79;101496.44;5059351;28;45494;-74
2022/07/22 00:39:33;;;;;;;;;31.00;28.67;;;;;21.85;75.99;101492.31;5058775;28;45281;-74
2022/07/22 00:42:00;;;;;;;;;33.67;31.00;;;;;21.78;76.19;101492.41;5058892;28;45703;-74
2022/07/22 00:44:26;;;;;;;;;30.33;27.67;;;;;21.81;76.56;101505.50;5058962;28;45289;-74
2022/07/22 00:46:51;;;;;;;;;31.33;29.00;;;;;21.75;76.33;101489.31;5059001;28;45505;-74
2022/07/22 00:49:16;;;;;;;;;32.67;29.67;;;;;21.73;76.02;101484.13;5058604;28;45429;-74
2022/07/22 00:51:42;;;;;;;;;32.00;31.00;;;;;21.71;77.03;101494.38;5058512;28;46377;-75
2022/07/22 00:54:08;;;;;;;;;29.33;28.33;;;;;21.69;76.63;101486.50;5047715;28;45482;-75
2022/07/22 00:56:34;;;;;;;;;28.33;27.67;;;;;21.65;76.89;101487.19;5040798;28;45728;-75
2022/07/22 00:59:02;;;;;;;;;33.33;29.67;;;;;21.68;77.20;101489.44;5058758;28;45405;-74
2022/07/22 01:01:28;;;;;;;;;33.00;30.67;;;;;21.68;76.55;101478.59;5058604;28;45567;-75
2022/07/22 01:03:53;;;;;;;;;34.00;30.67;;;;;21.64;76.90;101475.53;5058624;28;45339;-74
2022/07/22 01:06:19;;;;;;;;;30.67;29.00;;;;;21.61;77.17;101470.59;5058917;28;45706;-75
2022/07/22 01:08:44;;;;;;;;;31.33;29.67;;;;;21.55;76.58;101464.22;5055578;28;46946;-74
2022/07/22 01:11:12;;;;;;;;;29.00;27.33;;;;;21.53;76.94;101471.75;5058378;28;46419;-74
2022/07/22 01:13:38;;;;;;;;;32.67;30.00;;;;;21.50;77.45;101466.81;5055249;28;45661;-74
2022/07/22 01:16:05;;;;;;;;;28.33;27.00;;;;;21.50;77.22;101474.09;5048031;28;45332;-74
2022/07/22 01:18:30;;;;;;;;;32.33;28.00;;;;;21.40;77.09;101469.25;5067072;28;45362;-74
2022/07/22 01:20:56;;;;;;;;;31.00;28.33;;;;;21.38;77.03;101468.63;5046724;28;48003;-75
2022/07/22 01:23:22;;;;;;;;;30.00;29.33;;;;;21.41;77.56;101477.13;5061771;28;45414;-74
2022/07/22 01:25:47;;;;;;;;;30.67;28.67;;;;;21.33;77.24;101468.50;5040516;28;45435;-74
2022/07/22 01:28:12;;;;;;;;;29.33;28.00;;;;;21.28;77.91;101472.72;5034526;28;45903;-74
2022/07/22 01:30:38;;;;;;;;;33.67;30.67;;;;;21.29;77.76;101470.84;5043588;28;47455;-74
2022/07/22 01:33:03;;;;;;;;;30.67;29.33;;;;;21.23;77.63;101463.63;5061775;28;45425;-74
2022/07/22 01:35:28;;;;;;;;;26.33;25.33;;;;;21.17;78.34;101459.97;5043576;28;45400;-75
2022/07/22 01:37:54;;;;;;;;;27.33;25.67;;;;;21.24;78.05;101473.38;5043532;28;46091;-74
2022/07/22 01:40:19;;;;;;;;;24.00;24.00;;;;;21.17;77.95;101463.50;5043568;28;47131;-75
2022/07/22 01:42:45;;;;;;;;;24.67;24.67;;;;;21.17;78.04;101466.22;5061625;28;45332;-74
2022/07/22 01:45:10;;;;;;;;;29.00;27.00;;;;;21.15;78.36;101462.91;5040483;28;45384;-74
2022/07/22 01:47:36;;;;;;;;;26.67;26.67;;;;;21.17;78.15;101468.91;5053966;28;45440;-74
2022/07/22 01:50:02;;;;;;;;;26.67;26.00;;;;;21.14;78.89;101463.13;5061154;28;45314;-74
2022/07/22 01:52:27;;;;;;;;;27.67;27.67;;;;;21.11;78.56;101466.28;5050327;28;45705;-75
2022/07/22 01:54:52;;;;;;;;;27.00;27.00;;;;;21.12;77.94;101457.97;5061481;28;45273;-74
2022/07/22 01:57:18;;;;;;;;;29.67;26.33;;;;;21.09;78.31;101461.09;5043314;28;47081;-74
2022/07/22 01:59:43;;;;;;;;;26.00;24.00;;;;;21.08;79.19;101453.22;5061338;28;45456;-74
2022/07/22 02:02:08;;;;;;;;;27.00;26.67;;;;;21.04;78.32;101444.78;5061385;28;45359;-74
2022/07/22 02:04:34;;;;;;;;;28.00;26.33;;;;;21.07;78.82;101452.41;5043232;28;45350;-74
2022/07/22 02:06:59;;;;;;;;;28.67;26.67;;;;;21.08;78.46;101455.94;5061075;28;45612;-74
2022/07/22 02:09:24;;;;;;;;;25.67;25.67;;;;;21.05;78.39;101449.13;5049478;28;47292;-74
2022/07/22 02:11:50;;;;;;;;;27.67;26.67;;;;;21.08;78.56;101458.63;5060872;28;45476;-74
2022/07/22 02:14:15;;;;;;;;;22.67;22.00;;;;;21.08;78.27;101455.94;5043440;28;45383;-74
2022/07/22 02:16:41;;;;;;;;;27.00;26.33;;;;;21.00;78.35;101449.78;5070154;28;45289;-74
2022/07/22 02:19:06;;;;;;;;;26.33;24.67;;;;;21.03;78.46;101448.50;5060840;28;46502;-74
2022/07/22 02:21:32;;;;;;;;;25.33;25.33;;;;;20.99;78.57;101458.97;5060941;28;45289;-74
2022/07/22 02:23:58;;;;;;;;;28.33;26.33;;;;;20.95;78.54;101444.22;5057341;28;45298;-74
2022/07/22 02:26:23;;;;;;;;;24.00;23.00;;;;;20.92;78.50;101445.53;5042424;28;47209;-75
2022/07/22 02:28:48;;;;;;;;;24.00;23.00;;;;;20.83;79.10;101440.63;5060761;28;45360;-74
2022/07/22 02:31:14;;;;;;;;;27.00;24.33;;;;;20.83;78.88;101444.13;5061028;28;45339;-74
2022/07/22 02:33:39;;;;;;;;;29.67;26.33;;;;;20.82;78.81;101445.19;5039427;28;45375;-74
2022/07/22 02:36:04;;;;;;;;;29.33;27.33;;;;;20.83;79.07;101448.75;5056247;28;45253;-74
2022/07/22 02:38:30;;;;;;;;;24.00;24.00;;;;;20.78;78.37;101444.00;5042602;28;47466;-74
2022/07/22 02:40:55;;;;;;;;;23.33;22.67;;;;;20.71;78.76;101438.66;5060842;28;45350;-74
2022/07/22 02:43:20;;;;;;;;;25.33;24.33;;;;;20.69;79.07;101457.00;5060764;28;45470;-74
2022/07/22 02:45:46;;;;;;;;;23.00;23.00;;;;;20.68;79.01;101456.16;5060879;28;45389;-75
2022/07/22 02:48:11;;;;;;;;;27.33;26.67;;;;;20.66;78.78;101460.13;5060478;28;45463;-75
2022/07/22 02:50:37;;;;;;;;;23.33;23.00;;;;;20.66;79.28;101458.28;5042261;28;45341;-74
2022/07/22 02:53:03;;;;;;;;;27.00;25.67;;;;;20.62;79.48;101453.53;5042370;28;45394;-74
2022/07/22 02:55:28;;;;;;;;;28.00;27.00;;;;;20.61;78.69;101452.72;5060590;28;45383;-75
2022/07/22 02:57:53;;;;;;;;;25.67;24.67;;;;;20.56;78.68;101447.16;5060485;28;46628;-74
2022/07/22 03:00:19;;;;;;;;;24.33;23.33;;;;;20.54;79.19;101444.69;5060134;28;45311;-75
2022/07/22 03:02:44;;;;;;;;;23.67;23.33;;;;;20.51;79.12;101447.00;5042561;28;45284;-74
2022/07/22 03:05:10;;;;;;;;;27.67;26.33;;;;;20.44;79.39;101445.19;5060141;28;45359;-74
2022/07/22 03:07:35;;;;;;;;;23.67;22.67;;;;;20.46;79.12;101444.97;5060209;28;45349;-74
2022/07/22 03:10:02;;;;;;;;;22.67;22.67;;;;;20.41;79.33;101442.94;5042008;28;45364;-75
2022/07/22 03:12:27;;;;;;;;;25.00;23.67;;;;;20.47;79.52;101440.41;5042562;28;45313;-74
2022/07/22 03:14:52;;;;;;;;;25.33;23.67;;;;;20.41;79.65;101442.13;5042070;28;47067;-74
2022/07/22 03:17:18;;;;;;;;;22.00;22.00;;;;;20.39;79.05;101452.31;5069292;28;45356;-74
2022/07/22 03:19:43;;;;;;;;;25.67;24.33;;;;;20.39;79.92;101450.47;5060061;28;45304;-74
2022/07/22 03:22:08;;;;;;;;;21.33;21.00;;;;;20.37;79.46;101452.53;5060169;28;45491;-75
2022/07/22 03:24:34;;;;;;;;;22.67;22.67;;;;;20.37;79.28;101460.63;5042002;28;46026;-74
2022/07/22 03:27:00;;;;;;;;;25.00;24.67;;;;;20.34;79.82;101454.84;5059828;28;45439;-75
2022/07/22 03:29:25;;;;;;;;;25.33;25.33;;;;;20.35;79.40;101445.72;5060179;28;45254;-74
2022/07/22 03:31:50;;;;;;;;;26.67;25.67;;;;;20.28;79.43;101441.22;5045960;28;45311;-75
2022/07/22 03:34:16;;;;;;;;;23.00;23.00;;;;;20.29;79.71;101445.56;5041626;28;45694;-74
2022/07/22 03:36:41;;;;;;;;;23.67;23.67;;;;;20.27;79.71;101442.28;5059003;28;46483;-74
2022/07/22 03:39:07;;;;;;;;;23.67;23.67;;;;;20.30;79.69;101447.19;5059662;28;45479;-74
2022/07/22 03:41:32;;;;;;;;;26.00;24.00;;;;;20.27;79.48;101441.44;5059768;28;45411;-74
2022/07/22 03:43:57;;;;;;;;;24.00;21.67;;;;;20.22;79.74;101443.97;5059788;28;45332;-74
2022/07/22 03:46:23;;;;;;;;;26.67;25.67;;;;;20.18;79.82;101438.19;5059619;28;45483;-74
2022/07/22 03:48:48;;;;;;;;;23.00;22.00;;;;;20.11;80.05;101435.53;5059694;28;45229;-74
2022/07/22 03:51:13;;;;;;;;;23.67;22.33;;;;;20.10;80.12;101435.75;5059647;28;45319;-74
2022/07/22 03:53:39;;;;;;;;;20.67;20.00;;;;;20.10;80.13;101438.47;5059633;28;45391;-74
2022/07/22 03:56:05;;;;;;;;;22.67;22.33;;;;;20.06;80.00;101433.50;5050339;28;46694;-74
2022/07/22 03:58:30;;;;;;;;;25.00;22.33;;;;;20.05;79.82;101434.56;5041310;28;45381;-74
2022/07/22 04:00:55;;;;;;;;;25.67;23.33;;;;;20.02;80.18;101436.91;5041623;28;45388;-74
2022/07/22 04:03:21;;;;;;;;;23.00;23.00;;;;;20.09;80.51;101442.22;5059182;28;45525;-74
2022/07/22 04:05:46;;;;;;;;;22.67;22.67;;;;;20.02;80.36;101435.00;5041234;28;48470;-74
2022/07/22 04:08:12;;;;;;;;;21.67;20.00;;;;;20.00;79.63;101442.47;5059273;28;45311;-74
2022/07/22 04:10:38;;;;;;;;;24.67;21.33;;;;;20.01;80.42;101437.91;5059596;28;45355;-74
2022/07/22 04:13:04;;;;;;;;;24.00;23.00;;;;;19.96;80.34;101435.84;5059516;28;45466;-74
2022/07/22 04:15:29;;;;;;;;;22.67;21.67;;;;;19.96;79.97;101430.44;5059528;28;45331;-75
2022/07/22 04:17:55;;;;;;;;;24.67;24.00;;;;;20.02;80.56;101435.00;5070052;28;45212;-74
2022/07/22 04:20:20;;;;;;;;;22.33;19.67;;;;;19.99;80.43;101430.00;5055223;28;45320;-75
2022/07/22 04:22:45;;;;;;;;;22.00;20.33;;;;;19.97;80.01;101425.91;5042621;28;45762;-75
2022/07/22 04:25:10;;;;;;;;;24.00;22.67;;;;;20.01;80.18;101433.38;5042072;28;48263;-75
2022/07/22 04:27:36;;;;;;;;;19.67;19.00;;;;;20.00;79.91;101425.47;5042077;28;45292;-75
2022/07/22 04:30:02;;;;;;;;;21.00;19.67;;;;;19.97;80.05;101418.66;5050902;28;45332;-75
2022/07/22 04:32:27;;;;;;;;;25.67;23.00;;;;;19.94;79.82;101419.88;5059797;28;45581;-75
2022/07/22 04:34:53;;;;;;;;;24.00;22.33;;;;;19.95;79.92;101426.13;5059712;28;45854;-75
2022/07/22 04:37:18;;;;;;;;;27.00;26.33;;;;;19.93;79.98;101423.63;5050747;28;45379;-74
2022/07/22 04:39:43;;;;;;;;;23.00;23.00;;;;;19.92;80.45;101421.16;5042571;28;45384;-75
2022/07/22 04:42:09;;;;;;;;;23.00;21.67;;;;;19.92;79.83;101422.00;5042245;28;47405;-74
2022/07/22 04:44:34;;;;;;;;;26.00;25.00;;;;;19.97;80.14;101420.50;5040095;28;47078;-75
2022/07/22 04:46:59;;;;;;;;;22.67;21.67;;;;;19.93;80.01;101422.81;5060313;28;45399;-74
2022/07/22 04:49:25;;;;;;;;;23.33;23.33;;;;;19.91;80.22;101423.03;5055028;28;45537;-74
2022/07/22 04:51:51;;;;;;;;;20.00;19.33;;;;;19.88;80.00;101414.56;5063712;28;45608;-75
2022/07/22 04:54:17;;;;;;;;;20.33;19.67;;;;;19.88;80.25;101412.69;5045664;28;47345;-75
2022/07/22 04:56:42;;;;;;;;;23.00;22.67;;;;;19.87;80.16;101405.63;5065227;28;45319;-75
2022/07/22 04:59:07;;;;;;;;;21.00;21.00;;;;;19.92;80.23;101418.47;5052843;28;45361;-76
2022/07/22 05:01:33;;;;;;;;;23.67;23.67;;;;;19.93;80.26;101412.00;5044523;28;46139;-74
2022/07/22 05:03:58;;;;;;;;;22.00;22.00;;;;;19.90;79.86;101410.59;5062034;28;46201;-74
2022/07/22 05:06:24;;;;;;;;;19.67;19.67;;;;;19.90;79.73;101415.97;5062213;28;45273;-74
2022/07/22 05:08:49;;;;;;;;;20.00;19.00;;;;;19.85;79.93;101413.13;5063038;28;45248;-74
2022/07/22 05:11:14;;;;;;;;;22.33;21.33;;;;;19.88;80.23;101414.56;5041620;28;47194;-74
2022/07/22 05:13:40;;;;;;;;;22.33;21.33;;;;;19.90;80.25;101412.44;5042849;28;45461;-76
2022/07/22 05:16:06;;;;;;;;;22.67;21.33;;;;;19.92;79.65;101419.31;5050006;28;45299;-75
2022/07/22 05:18:33;;;;;;;;;22.67;20.33;;;;;19.92;79.88;101413.06;5047966;28;45333;-76
2022/07/22 05:20:58;;;;;;;;;19.00;18.67;;;;;19.93;79.80;101414.72;5045150;28;46454;-75
2022/07/22 05:23:24;;;;;;;;;20.33;19.33;;;;;19.92;79.94;101405.81;5040719;28;47016;-76
2022/07/22 05:25:49;;;;;;;;;24.33;23.00;;;;;19.92;80.11;101413.91;5057635;28;45407;-75
2022/07/22 05:28:14;;;;;;;;;18.33;18.33;;;;;19.91;79.83;101409.53;5042623;28;45292;-75
2022/07/22 05:30:40;;;;;;;;;23.33;21.67;;;;;19.94;80.10;101405.59;5029101;28;45731;-75
2022/07/22 05:33:05;;;;;;;;;18.33;17.00;;;;;19.94;79.58;101411.00;5042949;28;45371;-76
2022/07/22 05:35:31;;;;;;;;;22.00;21.33;;;;;19.91;79.63;101395.25;5048723;28;45761;-75
2022/07/22 05:37:56;;;;;;;;;19.00;19.00;;;;;19.97;79.88;101398.91;5042978;28;45300;-76
2022/07/22 05:40:22;;;;;;;;;24.33;22.00;;;;;20.02;79.46;101407.22;5042766;28;46261;-75
2022/07/22 05:42:47;;;;;;;;;22.00;20.00;;;;;20.01;79.44;101400.16;5042642;28;46704;-76
2022/07/22 05:45:12;;;;;;;;;21.00;20.67;;;;;20.00;79.44;101398.47;5044987;28;46044;-75
2022/07/22 05:47:38;;;;;;;;;21.33;20.33;;;;;20.04;79.67;101407.81;5041224;28;45846;-75
2022/07/22 05:50:04;;;;;;;;;22.67;21.00;;;;;20.06;79.45;101400.31;5042241;28;45215;-76
2022/07/22 05:52:29;;;;;;;;;24.00;24.00;;;;;20.07;79.29;101393.88;5040689;28;48275;-75
2022/07/22 05:54:54;;;;;;;;;23.00;22.67;;;;;20.12;79.28;101404.00;5054349;28;45754;-76
2022/07/22 05:57:20;;;;;;;;;24.33;24.33;;;;;20.16;78.82;101405.19;5042652;28;45331;-76
2022/07/22 05:59:45;;;;;;;;;22.33;22.33;;;;;20.16;79.42;101402.50;5040753;28;45402;-75
2022/07/22 06:02:10;;;;;;;;;23.33;22.00;;;;;20.18;79.21;101400.41;5040526;28;47232;-76
2022/07/22 06:04:36;;;;;;;;;23.00;23.00;;;;;20.23;78.99;101400.56;5041915;28;45343;-75
2022/07/22 06:07:01;;;;;;;;;26.00;25.33;;;;;20.23;79.59;101392.47;5041528;28;45304;-75
2022/07/22 06:09:27;;;;;;;;;20.67;20.67;;;;;20.26;79.17;101389.31;5042221;28;45546;-75
2022/07/22 06:11:52;;;;;;;;;23.00;22.67;;;;;20.36;79.23;101406.88;5059689;28;45945;-75
2022/07/22 06:14:17;;;;;;;;;23.00;22.00;;;;;20.34;79.10;101401.69;5062272;28;45375;-76
2022/07/22 06:16:42;;;;;;;;;24.67;24.67;;;;;20.40;78.91;101408.91;5071090;28;45531;-76
2022/07/22 06:19:08;;;;;;;;;21.33;20.67;;;;;20.43;79.08;101396.81;5043890;28;46099;-76
2022/07/22 06:21:33;;;;;;;;;25.00;23.00;;;;;20.44;78.89;101391.22;5062544;28;45454;-76
2022/07/22 06:23:59;;;;;;;;;22.33;22.33;;;;;20.46;79.13;101385.59;5057700;28;45334;-76
2022/07/22 06:26:24;;;;;;;;;23.33;22.33;;;;;20.54;78.56;101398.81;5052255;28;45356;-75
2022/07/22 06:28:50;;;;;;;;;29.00;25.50;;;;;20.55;78.65;101392.34;5043070;28;46101;-75
2022/07/22 06:31:16;;;;;;;;;27.33;26.00;;;;;20.56;78.18;101393.97;5061770;28;45495;-75
2022/07/22 06:33:41;;;;;;;;;19.33;19.00;;;;;20.57;78.36;101397.50;5061775;28;45294;-76
2022/07/22 06:36:07;;;;;;;;;22.00;20.00;;;;;20.54;78.61;101401.50;5062099;28;46784;-76
2022/07/22 06:38:32;;;;;;;;;25.33;24.67;;;;;20.58;78.65;101409.94;5048427;28;46902;-76
2022/07/22 06:40:58;;;;;;;;;23.00;21.33;;;;;20.61;78.32;101400.56;5061067;28;45223;-76
2022/07/22 06:43:23;;;;;;;;;24.33;22.00;;;;;20.69;78.82;101401.09;5059610;28;45939;-76
2022/07/22 06:45:48;;;;;;;;;24.33;23.67;;;;;20.79;78.92;101400.56;5061978;28;45320;-75
2022/07/22 06:48:14;;;;;;;;;26.33;24.33;;;;;20.88;78.13;101397.53;5040024;28;47207;-76
2022/07/22 06:50:39;;;;;;;;;24.00;22.00;;;;;20.94;78.49;101405.59;5050006;28;45958;-76
2022/07/22 06:53:05;;;;;;;;;24.00;24.00;;;;;20.93;78.43;101387.75;5042519;28;45455;-76
2022/07/22 06:55:30;;;;;;;;;23.33;20.00;;;;;21.02;78.05;101390.13;5047140;28;45348;-76
2022/07/22 06:57:56;;;;;;;;;22.33;21.33;;;;;21.05;78.16;101398.59;5060839;28;45253;-75
2022/07/22 07:00:21;;;;;;;;;25.00;23.33;;;;;21.07;77.99;101390.25;5060495;28;46591;-75
2022/07/22 07:02:47;;;;;;;;;21.00;20.00;;;;;21.16;78.07;101394.28;5060908;28;45390;-76
2022/07/22 07:05:12;;;;;;;;;21.00;20.00;;;;;21.17;78.33;101390.53;5056282;28;45334;-76
2022/07/22 07:07:37;;;;;;;;;20.00;20.00;;;;;21.23;78.19;101388.78;5060605;28;45356;-75
2022/07/22 07:10:04;;;;;;;;;21.33;21.33;;;;;21.34;77.98;101397.16;5060945;28;45350;-75
2022/07/22 07:12:29;;;;;;;;;21.67;21.33;;;;;21.36;77.95;101393.16;5060963;28;45304;-75
2022/07/22 07:14:54;;;;;;;;;23.33;22.00;;;;;21.40;77.17;101402.47;5060905;28;45549;-75
2022/07/22 07:17:20;;;;;;;;;25.67;23.67;;;;;21.42;77.57;101403.06;5070676;28;45490;-75
2022/07/22 07:19:45;;;;;;;;;24.67;22.33;;;;;21.49;77.57;101399.44;5061390;28;45559;-76
2022/07/22 07:22:10;;;;;;;;;19.00;18.67;;;;;21.52;77.03;101397.06;5056813;28;45271;-75
2022/07/22 07:24:36;;;;;;;;;27.00;23.00;;;;;21.60;76.89;101397.78;5042892;28;45296;-76
2022/07/22 07:27:01;;;;;;;;;22.67;22.67;;;;;21.71;76.87;101388.88;5061130;28;45304;-75
2022/07/22 07:29:26;;;;;;;;;25.67;24.00;;;;;21.79;77.25;101391.25;5045753;28;47425;-76
2022/07/22 07:31:52;;;;;;;;;24.50;22.50;;;;;21.96;77.38;101392.47;5042046;28;45258;-75
2022/07/22 07:34:17;;;;;;;;;27.33;24.33;;;;;22.06;76.81;101390.78;5054562;28;45295;-75
2022/07/22 07:36:42;;;;;;;;;25.00;22.67;;;;;22.12;75.92;101405.25;5061002;28;45160;-76
2022/07/22 07:39:08;;;;;;;;;26.00;25.67;;;;;22.14;76.36;101388.78;5060509;28;45252;-75
2022/07/22 07:41:33;;;;;;;;;27.67;26.00;;;;;22.18;75.70;101404.31;5060505;28;45415;-75
2022/07/22 07:43:59;;;;;;;;;24.00;23.00;;;;;22.15;75.96;101406.69;5060812;28;45337;-75
2022/07/22 07:46:24;;;;;;;;;25.33;22.00;;;;;22.22;76.11;101417.38;5055984;28;47324;-75
2022/07/22 07:48:50;;;;;;;;;23.00;21.67;;;;;22.30;76.01;101417.03;5059863;28;45328;-75
2022/07/22 07:51:15;;;;;;;;;24.00;23.33;;;;;22.37;75.92;101408.78;5041968;28;45868;-75
2022/07/22 07:53:40;;;;;;;;;21.33;20.33;;;;;22.50;75.68;101405.81;5060136;28;45329;-75
2022/07/22 07:56:06;;;;;;;;;22.33;20.67;;;;;22.63;75.48;101395.81;5041780;28;46399;-75
2022/07/22 07:58:32;;;;;;;;;24.67;23.33;;;;;22.70;75.04;101399.19;5060042;28;45407;-76
2022/07/22 08:00:57;;;;;;;;;25.67;25.67;;;;;22.75;74.23;101396.59;5060446;28;45453;-75
2022/07/22 08:03:23;;;;;;;;;21.33;21.33;;;;;22.79;74.57;101400.47;5060512;28;45549;-76
2022/07/22 08:05:48;;;;;;;;;28.33;26.00;;;;;22.87;74.01;101396.56;5041668;28;45791;-76
2022/07/22 08:08:13;;;;;;;;;23.33;23.00;;;;;22.95;74.10;101398.03;5059384;28;45661;-76
2022/07/22 08:10:39;;;;;;;;;27.67;27.00;;;;;22.99;73.62;101403.81;5060218;28;45373;-76
2022/07/22 08:13:05;;;;;;;;;28.00;26.67;;;;;22.98;74.12;101397.56;5061063;28;45313;-76
2022/07/22 08:15:31;;;;;;;;;25.33;25.33;;;;;23.06;73.43;101402.63;5061657;28;45312;-75
2022/07/22 08:17:57;;;;;;;;;23.67;22.67;;;;;23.17;73.64;101400.88;5068704;28;45266;-76
2022/07/22 08:20:25;;;;;;;;;21.00;21.00;;;;;23.26;73.09;101403.22;5041092;28;45273;-76
2022/07/22 08:22:50;;;;;;;;;30.00;27.00;;;;;23.37;73.29;101406.97;5059114;28;45276;-76
2022/07/22 08:25:16;;;;;;;;;24.00;24.00;;;;;23.48;73.21;101406.06;5059045;28;45182;-76
2022/07/22 08:27:41;;;;;;;;;27.67;23.67;;;;;23.58;73.00;101391.84;5038805;28;47313;-76
2022/07/22 08:30:07;;;;;;;;;27.33;26.33;;;;;23.71;72.10;101391.50;5051715;28;45420;-76
2022/07/22 08:32:33;;;;;;;;;21.00;21.00;;;;;23.85;71.90;101388.44;5059165;28;45435;-77
2022/07/22 08:34:59;;;;;;;;;28.00;26.00;;;;;24.01;72.09;101389.53;5059213;28;45473;-76
2022/07/22 08:37:25;;;;;;;;;20.67;20.67;;;;;24.08;71.56;101387.44;5050108;28;47020;-76
2022/07/22 08:39:50;;;;;;;;;21.67;20.33;;;;;24.22;71.13;101384.41;5058876;28;45442;-76
2022/07/22 08:42:15;;;;;;;;;27.00;24.00;;;;;24.36;71.14;101394.91;5060341;28;45454;-76
2022/07/22 08:44:41;;;;;;;;;22.67;21.67;;;;;24.38;71.02;101387.31;5058979;28;45320;-76
2022/07/22 08:47:06;;;;;;;;;23.00;23.00;;;;;24.46;70.21;101384.97;5059555;28;46119;-76
2022/07/22 08:49:32;;;;;;;;;26.00;25.00;;;;;24.50;70.49;101377.13;5051497;28;45296;-77
2022/07/22 08:51:57;;;;;;;;;26.33;23.00;;;;;24.60;70.62;101373.72;5044453;28;45370;-75
2022/07/22 08:54:23;;;;;;;;;24.67;22.67;;;;;24.65;70.00;101384.66;5059129;28;45505;-77
2022/07/22 08:56:50;;;;;;;;;23.00;22.00;;;;;24.73;70.41;101377.94;5055620;28;48331;-77
2022/07/22 08:59:16;;;;;;;;;35.67;31.33;;;;;24.82;69.50;101368.28;5059503;28;45237;-76
2022/07/22 09:02:05;;;;;;;;;28.67;26.33;;;;;24.91;69.53;101365.13;5060267;28;45666;-75
2022/07/22 09:04:31;;;;;;;;;22.00;22.00;;;;;25.03;68.96;101365.78;5052058;28;46447;-77
2022/07/22 09:06:57;;;;;;;;;28.67;26.33;;;;;25.13;68.87;101356.06;5042210;28;47383;-76
2022/07/22 09:09:32;;;;;;;;;24.00;23.67;;;;;25.24;68.32;101352.38;5059732;28;45428;-77
2022/07/22 09:12:06;;;;;;;;;27.67;27.00;;;;;25.30;68.11;101354.06;5059223;28;45442;-77
2022/07/22 09:14:46;;;;;;;;;24.67;24.67;;;;;25.38;67.51;101350.00;5059894;28;45398;-76
2022/07/22 09:17:29;;;;;;;;;25.67;23.67;;;;;25.47;67.20;101347.66;5059413;28;46502;-76
2022/07/22 09:19:56;;;;;;;;;25.00;23.33;;;;;25.53;66.90;101330.25;5031817;28;45818;-76
2022/07/22 09:22:39;;;;;;;;;25.00;22.67;;;;;25.55;66.38;101333.56;5057171;28;45288;-76
2022/07/22 09:25:30;;;;;;;;;26.33;25.67;;;;;25.62;66.68;101324.38;5055796;28;45261;-77
2022/07/22 09:28:10;;;;;;;;;23.00;23.00;;;;;25.63;66.84;101304.25;5049406;28;45408;-76
2022/07/22 09:30:44;;;;;;;;;27.00;26.00;;;;;25.76;66.49;101298.34;5062175;28;45254;-76
2022/07/22 09:33:10;;;;;;;;;25.67;24.67;;;;;25.79;65.56;101289.63;5063273;28;45135;-76
2022/07/22 09:35:36;;;;;;;;;21.67;21.67;;;;;25.89;66.05;101279.88;5062071;28;45427;-76
2022/07/22 09:38:07;;;;;;;;;23.00;22.67;;;;;26.04;65.70;101301.72;5066545;28;46801;-76
2022/07/22 09:40:35;;;;;;;;;25.00;24.33;;;;;26.08;65.51;101323.81;5066225;28;45297;-76
2022/07/22 09:43:04;;;;;;;;;24.33;24.00;;;;;26.14;65.26;101319.19;5063422;28;45278;-76
2022/07/22 09:45:31;;;;;;;;;24.00;22.67;;;;;26.25;64.87;101337.25;5055841;28;45533;-76
2022/07/22 09:47:59;;;;;;;;;27.33;23.33;;;;;26.28;64.50;101338.59;5028618;28;48127;-77
2022/07/22 09:50:34;;;;;;;;;22.67;22.67;;;;;26.36;64.75;101353.66;5039017;28;45259;-76
2022/07/22 09:53:00;;;;;;;;;26.67;25.33;;;;;26.51;64.17;101348.22;5060312;28;45336;-77
2022/07/22 09:55:28;;;;;;;;;22.33;22.33;;;;;26.67;64.36;101342.84;5058442;28;45471;-77
2022/07/22 09:57:55;;;;;;;;;23.67;23.00;;;;;26.78;63.68;101341.75;5057103;28;45342;-76
2022/07/22 10:00:23;;;;;;;;;22.67;22.67;;;;;26.88;63.24;101329.22;5051733;28;45412;-77
2022/07/22 10:02:50;;;;;;;;;28.33;27.00;;;;;26.99;62.73;101322.72;5046697;28;45190;-75
2022/07/22 10:05:18;;;;;;;;;27.33;26.00;;;;;27.06;62.25;101320.53;5061104;28;47114;-77
2022/07/22 10:07:45;;;;;;;;;24.00;22.00;;;;;27.09;62.07;101302.81;5065025;28;46027;-77
2022/07/22 10:10:15;;;;;;;;;22.67;22.67;;;;;27.10;61.85;101302.56;5045964;28;46114;-77
2022/07/22 10:12:41;;;;;;;;;22.67;20.33;;;;;27.21;61.78;101311.53;5035434;28;45419;-76
2022/07/22 10:15:08;;;;;;;;;26.33;24.67;;;;;27.26;61.68;101318.09;5047452;28;47500;-77
2022/07/22 10:17:40;;;;;;;;;25.33;24.33;;;;;27.36;61.45;101318.09;5058166;28;46254;-76
2022/07/22 10:20:07;;;;;;;;;26.00;25.33;;;;;27.42;61.62;101327.06;5059887;28;45253;-76
2022/07/22 10:22:38;;;;;;;;;24.00;23.00;;;;;27.50;60.97;101322.97;5052013;28;45387;-77
2022/07/22 10:25:08;;;;;;;;;27.33;26.67;;;;;27.51;60.68;101322.72;5066945;28;45267;-76
2022/07/22 10:27:45;;;;;;;;;22.67;22.67;;;;;27.56;60.63;101322.69;5046134;28;46623;-77
2022/07/22 10:30:12;;;;;;;;;22.67;22.67;;;;;27.63;60.82;101322.41;5059043;28;45360;-76
2022/07/22 10:32:37;;;;;;;;;24.67;24.33;;;;;27.69;61.66;101323.25;5048026;28;45344;-76
2022/07/22 10:35:09;;;;;;;;;24.00;21.67;;;;;27.76;60.64;101331.94;5065000;28;45216;-76
2022/07/22 10:37:34;;;;;;;;;22.67;21.67;;;;;27.71;60.20;101332.78;5057107;28;47075;-76
2022/07/22 10:40:08;;;;;;;;;26.33;25.00;;;;;27.62;60.35;101323.47;5047997;28;45371;-77
2022/07/22 10:43:08;;;;;;;;;24.00;23.67;;;;;27.58;60.27;101325.13;5065388;28;44760;-76
2022/07/22 10:45:38;;;;;;;;;24.00;24.00;;;;;27.44;59.89;101297.59;5052013;28;45333;-77
2022/07/22 10:48:07;;;;;;;;;27.33;24.67;;;;;27.27;60.25;101270.63;5062396;28;45327;-76
2022/07/22 10:50:36;;;;;;;;;23.67;23.33;;;;;27.18;60.13;101275.81;5054642;28;44702;-76
2022/07/22 10:53:10;;;;;;;;;20.00;20.00;;;;;26.99;60.74;101278.28;5066220;28;45329;-76
2022/07/22 10:55:36;;;;;;;;;28.00;25.33;;;;;26.90;60.47;101267.09;5049324;28;47244;-76
2022/07/22 10:58:32;;;;;;;;;26.00;26.00;;;;;26.80;61.31;101265.97;5048926;28;45838;-76
2022/07/22 11:01:01;;;;;;;;;28.33;26.67;;;;;26.66;61.54;101257.50;5065998;28;45329;-77
2022/07/22 11:03:29;;;;;;;;;29.00;25.67;;;;;26.59;61.07;101252.34;5065951;28;45403;-75
2022/07/22 11:05:55;;;;;;;;;26.50;26.00;;;;;26.47;61.96;101232.69;5065581;28;45339;-76